Shindle, Pennsylvania
Current Conditions -  °F | °C
As of 9:53 PM on Saturday 25 Oct 2014 (Local Time) from KUNV Reporting Station
Broken Clouds Broken Clouds  
Wind Chill: 61°   Ceiling: 8500
Heat Index: 61°   Visibility: 10mi
Dew Point: 48°   Wind: 17mph
Humidity: 63%   Direction: 300°WNW
Pressure: 29.68"   Gusts: NA
Location:  40.7125°N, 77.3707°W
Report Text: KUNV 260153Z 30015KT 10SM SCT070 BKN085 16/09 A2968
Loading
Personal Weather Stations






























Interactive Weather Map
Tropical Storm Tracking
New forecast layout! Learn more

10-Day Weather Forecast

Advertisements
Track Severe Weather on mobile